Time;durP1;ratioP1;P1;durP2;ratioP2;P2;SDS_P1;SDS_P2;PMS_P1;PMS_P2;Temp;Humidity;BMP_temperature;BMP_pressure;BME280_temperature;BME280_humidity;BME280_pressure;Samples;Min_cycle;Max_cycle;Signal;HPM_P1;HPM_P2
2021/06/21 00:00:33;;;;;;;9.18;2.30;;;15.20;99.90;;;14.81;100.00;100135.38;4137003;28;20067;-67
2021/06/21 00:02:33;;;;;;;8.38;2.60;;;15.10;99.90;;;14.80;100.00;100133.72;4137097;28;20030;-67
2021/06/21 00:04:34;;;;;;;9.63;2.33;;;15.10;99.90;;;14.77;100.00;100136.78;4138170;28;20121;-67
2021/06/21 00:06:36;;;;;;;10.50;2.00;;;15.00;99.90;;;14.78;100.00;100146.38;4138123;28;20402;-67
2021/06/21 00:08:37;;;;;;;13.80;2.80;;;15.10;99.90;;;14.82;100.00;100145.78;4138039;28;20037;-67
2021/06/21 00:10:38;;;;;;;9.68;2.03;;;15.00;99.90;;;14.80;100.00;100149.66;4137620;28;20490;-67
2021/06/21 00:12:41;;;;;;;7.45;2.28;;;15.00;99.90;;;14.84;100.00;100142.94;4138043;28;20026;-67
2021/06/21 00:14:42;;;;;;;10.20;2.63;;;15.00;99.90;;;14.90;100.00;100142.16;4137957;28;20050;-67
2021/06/21 00:16:43;;;;;;;7.97;2.55;;;15.00;99.90;;;14.87;100.00;100145.19;4137917;28;20018;-67
2021/06/21 00:18:44;;;;;;;8.38;2.65;;;15.10;99.90;;;14.82;100.00;100135.16;4137966;28;20478;-67
2021/06/21 00:20:47;;;;;;;6.85;2.08;;;15.00;99.90;;;14.83;100.00;100146.59;4137893;28;20486;-67
2021/06/21 00:22:49;;;;;;;7.85;2.13;;;15.00;99.90;;;14.87;100.00;100147.84;4137930;28;20042;-67
2021/06/21 00:24:50;;;;;;;7.95;2.22;;;15.00;99.90;;;14.84;100.00;100146.41;4136427;28;20117;-67
2021/06/21 00:26:52;;;;;;;9.90;2.10;;;15.00;99.90;;;14.86;100.00;100148.88;4168914;28;20484;-67
2021/06/21 00:28:53;;;;;;;7.32;3.00;;;15.00;99.90;;;14.90;100.00;100158.09;4136277;28;20026;-67
2021/06/21 00:30:54;;;;;;;11.77;2.15;;;15.00;99.90;;;14.86;100.00;100152.34;4152286;28;20026;-67
2021/06/21 00:32:55;;;;;;;7.95;2.10;;;15.00;99.90;;;14.82;100.00;100152.94;4152802;28;20101;-67
2021/06/21 00:34:56;;;;;;;7.70;2.20;;;15.00;99.90;;;14.89;100.00;100156.44;4137806;28;20053;-67
2021/06/21 00:36:57;;;;;;;9.07;2.55;;;15.00;99.90;;;14.76;100.00;100161.69;4136452;28;20026;-67
2021/06/21 00:38:58;;;;;;;10.65;2.03;;;15.00;99.90;;;14.76;100.00;100165.16;4136600;28;20094;-67
2021/06/21 00:40:59;;;;;;;9.27;2.10;;;15.00;99.90;;;14.76;100.00;100166.97;4136057;28;20031;-67
2021/06/21 00:43:00;;;;;;;11.90;2.28;;;15.00;99.90;;;14.76;100.00;100175.78;4137387;28;20035;-67
2021/06/21 00:45:02;;;;;;;7.70;2.15;;;15.00;99.90;;;14.66;100.00;100175.34;4137666;28;20027;-67
2021/06/21 00:47:03;;;;;;;4.07;1.70;;;14.90;99.90;;;14.72;100.00;100176.38;4136334;28;20038;-67
2021/06/21 00:49:04;;;;;;;9.93;2.35;;;14.90;99.90;;;14.73;100.00;100175.34;4137502;28;20165;-67
2021/06/21 00:51:05;;;;;;;8.30;2.00;;;14.90;99.90;;;14.63;100.00;100172.25;4137328;28;20034;-67
2021/06/21 00:53:06;;;;;;;7.55;2.42;;;14.90;99.90;;;14.66;100.00;100170.03;4137510;28;20027;-67
2021/06/21 00:55:09;;;;;;;8.32;2.33;;;14.90;99.90;;;14.52;100.00;100157.66;4137483;28;20034;-67
2021/06/21 00:57:10;;;;;;;9.30;1.88;;;14.90;99.90;;;14.66;100.00;100167.38;4136962;28;20022;-67
2021/06/21 00:59:11;;;;;;;8.05;2.08;;;14.80;99.90;;;14.63;100.00;100151.00;4135956;28;20031;-67
2021/06/21 01:01:12;;;;;;;7.47;2.25;;;14.80;99.90;;;14.48;100.00;100159.09;4136115;28;20054;-67
2021/06/21 01:03:13;;;;;;;6.45;2.20;;;14.80;99.90;;;14.50;100.00;100159.72;4135972;28;20035;-67
2021/06/21 01:05:17;;;;;;;9.27;2.10;;;14.80;99.90;;;14.52;100.00;100162.16;4136002;28;20108;-67
2021/06/21 01:07:18;;;;;;;9.77;2.50;;;14.80;99.90;;;14.50;100.00;100158.88;4135886;28;20547;-67
2021/06/21 01:09:20;;;;;;;12.45;3.13;;;14.70;99.90;;;14.58;100.00;100167.50;4137379;28;20394;-67
2021/06/21 01:11:27;;;;;;;7.95;1.95;;;14.70;99.90;;;14.60;100.00;100169.97;4136839;28;20502;-67
2021/06/21 01:14:17;;;;;;;8.88;2.38;;;14.70;99.90;;;14.59;100.00;100160.38;4136880;28;20030;-67
2021/06/21 01:16:32;;;;;;;6.47;1.83;;;14.70;99.90;;;14.52;100.00;100155.03;4135632;28;20046;-67
2021/06/21 01:18:34;;;;;;;6.00;2.00;;;14.70;99.90;;;14.51;100.00;100149.91;4135692;28;20093;-67
2021/06/21 01:21:17;;;;;;;6.43;1.90;;;14.70;99.90;;;14.59;100.00;100165.69;4135863;28;20168;-67
2021/06/21 01:24:06;;;;;;;7.82;2.33;;;14.70;99.90;;;14.45;100.00;100163.97;4146302;28;20034;-67
2021/06/21 01:26:24;;;;;;;9.75;2.28;;;14.70;99.90;;;14.48;100.00;100159.09;4165588;28;20033;-67
2021/06/21 01:29:19;;;;;;;10.45;2.28;;;14.70;99.90;;;14.33;100.00;100171.66;4135454;28;20026;-67
2021/06/21 01:31:22;;;;;;;8.00;2.33;;;14.60;99.90;;;14.40;100.00;100183.13;4135414;28;20042;-67
2021/06/21 01:33:25;;;;;;;14.07;2.42;;;14.60;99.90;;;14.40;100.00;100175.16;4136670;28;20025;-67
2021/06/21 01:35:38;;;;;;;7.10;2.30;;;14.60;99.90;;;14.37;100.00;100170.22;4135487;28;20030;-67
2021/06/21 01:37:39;;;;;;;5.38;2.05;;;14.70;99.90;;;14.35;100.00;100172.28;4136581;28;20033;-67
2021/06/21 01:39:42;;;;;;;7.10;2.70;;;14.70;99.90;;;14.46;100.00;100173.56;4136306;28;20046;-67
2021/06/21 01:41:45;;;;;;;16.50;3.15;;;14.70;99.90;;;14.45;100.00;100177.25;4135392;28;20030;-67
2021/06/21 01:43:48;;;;;;;9.15;2.40;;;14.70;99.90;;;14.51;100.00;100179.13;4135245;28;20037;-67
2021/06/21 01:45:50;;;;;;;7.80;2.33;;;14.80;99.90;;;14.63;100.00;100174.91;4136472;28;20018;-67
2021/06/21 01:47:54;;;;;;;9.10;2.83;;;14.90;99.90;;;14.65;100.00;100160.41;4135104;28;20022;-67
2021/06/21 01:49:57;;;;;;;8.35;1.92;;;14.90;99.90;;;14.67;100.00;100162.84;4135281;28;20053;-67
2021/06/21 01:52:01;;;;;;;6.13;2.55;;;14.90;99.90;;;14.70;100.00;100163.28;4135302;28;20058;-67
2021/06/21 01:54:02;;;;;;;;;;;14.90;99.90;;;14.62;100.00;100160.81;4135573;28;20077;-67
2021/06/21 01:56:17;;;;;;;9.10;2.40;;;14.90;99.90;;;14.62;100.00;100167.94;4134992;28;19940;-67
2021/06/21 01:58:21;;;;;;;8.88;2.33;;;14.90;99.90;;;14.59;100.00;100168.34;4135233;28;20058;-67
2021/06/21 02:00:23;;;;;;;;;;;14.90;99.90;;;14.56;100.00;100156.28;4136752;28;20037;-67
2021/06/21 02:02:25;;;;;;;7.47;1.98;;;14.80;99.90;;;14.52;100.00;100151.53;4135042;28;19917;-67
2021/06/21 02:04:31;;;;;;;7.10;2.08;;;14.80;99.90;;;14.56;100.00;100152.81;4135263;28;20489;-67
2021/06/21 02:06:35;;;;;;;9.32;2.80;;;14.80;99.90;;;14.61;100.00;100161.81;4135049;28;20035;-67
2021/06/21 02:08:38;;;;;;;7.80;1.95;;;14.80;99.90;;;14.66;100.00;100158.59;4136131;28;20106;-67
2021/06/21 02:10:39;;;;;;;3.47;1.70;;;14.80;99.90;;;14.39;100.00;100129.22;4135841;28;20164;-67
2021/06/21 02:12:41;;;;;;;9.48;2.20;;;14.70;99.90;;;14.45;100.00;100162.16;4134996;28;20029;-67
2021/06/21 02:14:42;;;;;;;6.72;1.70;;;14.70;99.90;;;14.43;100.00;100168.63;4134992;28;20486;-67
2021/06/21 02:16:44;;;;;;;5.15;2.10;;;14.70;99.90;;;14.42;100.00;100157.22;4134879;28;20572;-67
2021/06/21 02:18:48;;;;;;;7.03;2.10;;;14.70;99.90;;;14.48;100.00;100158.28;4134878;28;20562;-67
2021/06/21 02:20:53;;;;;;;6.85;2.35;;;14.70;99.90;;;14.44;100.00;100159.66;4134920;28;20045;-67
2021/06/21 02:22:54;;;;;;;7.65;2.65;;;14.70;99.90;;;14.54;100.00;100165.47;4134932;28;20031;-67
2021/06/21 02:25:03;;;;;;;7.38;2.20;;;14.70;99.90;;;14.51;100.00;100156.06;4134760;28;20026;-67
2021/06/21 02:27:06;;;;;;;6.85;1.80;;;14.80;99.90;;;14.53;100.00;100150.53;4134707;28;20096;-67
2021/06/21 02:29:08;;;;;;;8.68;2.00;;;14.80;99.90;;;14.60;100.00;100160.19;4135003;28;20426;-67
2021/06/21 02:31:09;;;;;;;7.22;1.85;;;14.80;99.90;;;14.63;100.00;100156.31;4134861;28;20509;-68
2021/06/21 02:33:14;;;;;;;6.50;1.70;;;14.80;99.90;;;14.56;100.00;100158.09;4118633;28;20113;-68
2021/06/21 02:35:16;;;;;;;5.18;1.77;;;14.80;99.90;;;14.58;100.00;100153.41;4135008;28;20029;-67
2021/06/21 02:37:17;;;;;;;6.45;2.03;;;14.90;99.90;;;14.51;100.00;100137.47;4151012;28;20034;-67
2021/06/21 02:39:18;;;;;;;8.13;1.98;;;14.80;99.90;;;14.59;100.00;100147.09;4134614;28;20065;-67
2021/06/21 02:41:20;;;;;;;11.93;3.25;;;14.90;99.90;;;14.46;100.00;100133.75;4135607;28;20072;-67
2021/06/21 02:43:21;;;;;;;6.60;2.22;;;14.90;99.90;;;14.43;100.00;100136.78;4135921;28;20026;-67
2021/06/21 02:45:22;;;;;;;6.57;1.52;;;14.80;99.90;;;14.44;100.00;100143.75;4136034;28;20037;-67
2021/06/21 02:47:23;;;;;;;5.90;1.85;;;14.80;99.90;;;14.50;100.00;100138.47;4134768;28;20030;-67
2021/06/21 02:49:24;;;;;;;3.97;1.70;;;14.80;99.90;;;14.53;100.00;100138.09;4134636;28;21205;-67
2021/06/21 02:52:14;;;;;;;9.82;2.05;;;14.80;99.90;;;14.59;100.00;100147.09;4134766;28;20101;-67
2021/06/21 02:55:06;;;;;;;5.65;1.85;;;14.90;99.90;;;14.54;100.00;100139.75;4141126;28;20426;-67
2021/06/21 02:57:12;;;;;;;7.93;1.60;;;14.90;99.90;;;14.56;100.00;100142.19;4139175;28;20065;-67
2021/06/21 02:59:17;;;;;;;6.03;1.58;;;15.00;99.90;;;14.57;100.00;100139.34;4141222;28;20053;-67
2021/06/21 03:01:19;;;;;;;8.27;2.28;;;14.90;99.90;;;14.64;100.00;100136.69;4140084;28;20036;-67
2021/06/21 03:03:30;;;;;;;5.30;1.85;;;15.00;99.90;;;14.66;100.00;100137.34;4139993;28;20034;-67
2021/06/21 03:05:32;;;;;;;5.43;1.80;;;15.00;99.90;;;14.76;100.00;100148.41;4139987;28;20490;-68
2021/06/21 03:07:35;;;;;;;5.20;1.60;;;15.00;99.90;;;14.73;100.00;100154.09;4141222;28;20041;-67
2021/06/21 03:09:40;;;;;;;8.00;1.92;;;15.10;99.90;;;14.73;100.00;100162.06;4139958;28;20034;-67
2021/06/21 03:11:43;;;;;;;7.43;2.40;;;15.10;99.90;;;14.78;100.00;100157.00;4139699;28;20077;-67
2021/06/21 03:13:47;;;;;;;10.93;2.13;;;15.10;99.90;;;14.88;100.00;100160.94;4140068;28;20049;-67
2021/06/21 03:15:54;;;;;;;8.70;2.13;;;15.10;99.90;;;14.90;100.00;100160.75;4140108;28;20545;-67
2021/06/21 03:17:57;;;;;;;5.53;1.80;;;15.10;99.90;;;14.96;100.00;100154.63;4140147;28;20100;-67
2021/06/21 03:19:58;;;;;;;7.32;2.40;;;15.20;99.90;;;14.93;100.00;100157.69;4140019;28;20445;-67
2021/06/21 03:21:59;;;;;;;8.52;2.13;;;15.20;99.90;;;14.92;100.00;100164.84;4139975;28;20053;-67
2021/06/21 03:24:00;;;;;;;7.65;2.67;;;15.20;99.90;;;14.88;100.00;100152.97;4139923;28;20030;-67
2021/06/21 03:26:05;;;;;;;7.78;1.80;;;15.20;99.90;;;14.92;100.00;100156.88;4140724;28;20018;-67
2021/06/21 03:28:12;;;;;;;9.60;2.33;;;15.20;99.90;;;14.92;100.00;100148.91;4140821;28;20065;-67
2021/06/21 03:30:15;;;;;;;10.30;1.98;;;15.20;99.90;;;14.84;100.00;100151.69;4139792;28;20516;-67
2021/06/21 03:32:32;;;;;;;4.13;1.88;;;15.20;99.90;;;14.84;100.00;100159.66;4139864;28;20393;-68
2021/06/21 03:34:35;;;;;;;8.85;2.33;;;15.20;99.90;;;14.74;100.00;100161.88;4139724;28;20026;-67
2021/06/21 03:36:36;;;;;;;17.58;2.72;;;15.10;99.90;;;14.77;100.00;100163.31;4139853;28;20037;-67
2021/06/21 03:38:38;;;;;;;11.85;2.75;;;15.20;99.90;;;14.76;100.00;100165.16;4141209;28;20022;-67
2021/06/21 03:40:42;;;;;;;10.55;2.47;;;15.10;99.90;;;14.78;100.00;100151.69;4140383;28;20050;-67
2021/06/21 03:42:43;;;;;;;10.60;2.50;;;15.10;99.90;;;14.82;100.00;100163.53;4139446;28;20026;-67
2021/06/21 03:44:44;;;;;;;14.10;2.20;;;15.10;99.90;;;14.87;100.00;100156.63;4139572;28;20528;-67
2021/06/21 03:46:45;;;;;;;7.03;2.13;;;15.20;99.90;;;14.81;100.00;100162.72;4140844;28;20030;-67
2021/06/21 03:48:46;;;;;;;8.25;2.35;;;15.20;99.90;;;14.87;100.00;100164.59;4140753;28;20061;-67
2021/06/21 03:50:47;;;;;;;15.02;1.90;;;15.20;99.90;;;14.86;100.00;100167.44;4140672;28;20145;-67
2021/06/21 03:52:48;;;;;;;6.72;2.42;;;15.20;99.90;;;14.77;100.00;100155.34;4140730;28;20030;-67
2021/06/21 03:55:05;;;;;;;13.35;2.17;;;15.20;99.90;;;14.93;100.00;100176.28;4123437;28;20426;-67
2021/06/21 03:57:09;;;;;;;7.28;1.95;;;15.30;99.90;;;14.95;100.00;100177.72;4140735;28;20026;-67
2021/06/21 03:59:10;;;;;;;3.30;1.52;;;15.30;99.90;;;14.82;100.00;100174.16;4139457;28;20018;-67
2021/06/21 04:01:11;;;;;;;6.93;2.00;;;15.30;99.90;;;14.85;100.00;100173.78;4140537;28;20038;-67
2021/06/21 04:03:12;;;;;;;12.75;2.22;;;15.30;99.90;;;14.85;100.00;100177.25;4155627;28;20037;-67
2021/06/21 04:05:14;;;;;;;9.07;2.30;;;15.30;99.90;;;14.79;100.00;100179.88;4137457;28;20477;-67
2021/06/21 04:07:15;;;;;;;10.45;2.60;;;15.20;99.90;;;14.77;100.00;100177.44;4153090;28;20076;-67
2021/06/21 04:09:16;;;;;;;9.55;2.17;;;15.20;99.90;;;14.90;100.00;100188.09;4138077;28;20030;-67
2021/06/21 04:11:17;;;;;;;7.20;1.70;;;15.30;99.90;;;14.84;100.00;100186.22;4137788;28;20030;-67
2021/06/21 04:13:19;;;;;;;15.90;2.33;;;15.20;99.90;;;14.87;100.00;100193.00;4138094;28;20033;-67
2021/06/21 04:15:30;;;;;;;6.03;1.90;;;15.20;99.90;;;14.77;100.00;100168.63;4137929;28;20054;-68
2021/06/21 04:17:31;;;;;;;7.18;2.20;;;15.30;99.90;;;14.87;100.00;100185.81;4138089;28;20096;-68
2021/06/21 04:19:32;;;;;;;14.23;3.88;;;15.30;99.90;;;14.88;100.00;100179.50;4152913;28;20030;-68
2021/06/21 04:21:33;;;;;;;10.02;2.30;;;15.30;99.90;;;14.91;100.00;100184.44;4136705;28;20030;-67
2021/06/21 04:23:34;;;;;;;11.73;2.13;;;15.30;99.90;;;14.95;100.00;100192.81;4136537;28;20088;-67
2021/06/21 04:25:36;;;;;;;4.85;2.40;;;15.40;99.90;;;14.96;100.00;100202.44;4127705;28;20034;-67
2021/06/21 04:27:38;;;;;;;7.93;1.80;;;15.40;99.90;;;15.10;100.00;100203.31;4136809;28;20031;-67
2021/06/21 04:29:40;;;;;;;5.97;1.80;;;15.40;99.90;;;15.08;100.00;100206.19;4136652;28;20036;-67
2021/06/21 04:31:41;;;;;;;10.13;2.45;;;15.40;99.90;;;15.02;100.00;100195.53;4136508;28;20093;-67
2021/06/21 04:33:42;;;;;;;5.65;2.20;;;15.50;99.90;;;15.12;100.00;100204.75;4136648;28;20445;-67
2021/06/21 04:35:43;;;;;;;12.23;1.98;;;15.50;99.90;;;15.11;100.00;100195.16;4137813;28;20030;-67
2021/06/21 04:37:44;;;;;;;14.57;2.60;;;15.50;99.90;;;15.22;100.00;100205.22;4137892;28;20045;-67
2021/06/21 04:39:45;;;;;;;9.48;2.70;;;15.60;99.90;;;15.16;100.00;100208.66;4137502;28;20046;-67
2021/06/21 04:41:46;;;;;;;15.32;2.78;;;15.60;99.90;;;15.03;100.00;100207.75;4137340;28;20030;-67
2021/06/21 04:43:47;;;;;;;21.20;3.75;;;15.60;99.90;;;15.03;100.00;100215.72;4137484;28;20034;-67
2021/06/21 04:45:48;;;;;;;11.75;2.20;;;15.60;99.90;;;15.03;100.00;100210.41;4136401;28;20026;-67
2021/06/21 04:47:49;;;;;;;9.65;2.85;;;15.50;99.90;;;15.09;100.00;100218.44;4137358;28;20027;-67
2021/06/21 04:49:56;;;;;;;12.07;3.22;;;15.60;99.90;;;15.12;100.00;100223.34;4137711;28;20065;-67
2021/06/21 04:51:58;;;;;;;11.00;2.00;;;15.50;99.90;;;15.10;100.00;100209.44;4137553;28;20030;-67
2021/06/21 04:54:00;;;;;;;12.95;2.38;;;15.60;99.90;;;15.11;100.00;100211.09;4136329;28;20102;-67
2021/06/21 04:56:01;;;;;;;9.70;1.80;;;15.60;99.90;;;15.25;100.00;100222.59;4136046;28;20538;-67
2021/06/21 04:58:02;;;;;;;7.97;2.22;;;15.60;99.90;;;15.21;100.00;100216.84;4136232;28;20046;-67
2021/06/21 05:00:13;;;;;;;6.72;1.90;;;15.60;99.90;;;15.22;100.00;100221.16;4137501;28;20130;-67
2021/06/21 05:02:14;;;;;;;5.13;2.10;;;15.60;99.90;;;15.18;100.00;100217.25;4135939;28;20022;-68
2021/06/21 05:04:15;;;;;;;12.25;2.00;;;15.60;99.90;;;15.20;100.00;100220.50;4137326;28;20031;-68
2021/06/21 05:06:16;;;;;;;6.72;1.95;;;15.60;99.90;;;15.12;100.00;100220.69;4136167;28;20030;-68
2021/06/21 05:08:17;;;;;;;8.35;1.90;;;15.60;99.90;;;15.12;100.00;100223.34;4136079;28;20061;-68
2021/06/21 05:10:22;;;;;;;8.35;1.88;;;15.50;99.90;;;15.10;100.00;100221.91;4136712;28;20038;-67
2021/06/21 05:12:24;;;;;;;10.57;2.67;;;15.50;99.90;;;15.13;100.00;100217.03;4136099;28;20026;-67
2021/06/21 05:14:25;;;;;;;9.20;2.05;;;15.50;99.90;;;15.07;100.00;100220.47;4137225;28;20494;-68
2021/06/21 05:16:27;;;;;;;11.25;2.15;;;15.50;99.90;;;15.01;100.00;100215.94;4136864;28;20031;-67
2021/06/21 05:18:28;;;;;;;7.88;2.22;;;15.40;99.90;;;14.97;100.00;100217.34;4136877;28;20026;-67
2021/06/21 05:20:29;;;;;;;8.15;2.08;;;15.30;99.90;;;14.93;100.00;100218.78;4136978;28;20105;-67
2021/06/21 05:22:30;;;;;;;7.10;1.77;;;15.30;99.90;;;14.91;100.00;100218.13;4151987;28;20022;-67
2021/06/21 05:24:32;;;;;;;5.72;2.28;;;15.30;99.90;;;14.88;100.00;100221.19;4135659;28;20092;-67
2021/06/21 05:26:33;;;;;;;7.57;2.05;;;15.30;99.90;;;14.90;100.00;100211.19;4136415;28;20030;-68
2021/06/21 05:28:34;;;;;;;6.28;1.98;;;15.20;99.90;;;14.98;100.00;100219.00;4135733;28;20053;-67
2021/06/21 05:30:35;;;;;;;9.80;2.10;;;15.30;99.90;;;15.02;100.00;100224.75;4135602;28;20513;-67
2021/06/21 05:32:36;;;;;;;10.35;2.28;;;15.30;99.90;;;15.02;100.00;100220.25;4135608;28;20129;-67
2021/06/21 05:34:37;;;;;;;4.85;2.15;;;15.40;99.90;;;15.12;100.00;100228.66;4135625;28;20023;-67
2021/06/21 05:36:38;;;;;;;8.23;2.00;;;15.40;99.90;;;15.19;100.00;100232.16;4136782;28;20034;-67
2021/06/21 05:38:39;;;;;;;7.68;2.15;;;15.50;99.90;;;15.19;100.00;100215.41;4136645;28;20520;-67
2021/06/21 05:40:40;;;;;;;3.75;1.90;;;15.50;99.90;;;15.28;100.00;100225.66;4136064;28;20046;-67
2021/06/21 05:42:41;;;;;;;13.70;2.88;;;15.60;99.90;;;15.19;100.00;100213.56;4136406;28;20026;-67
2021/06/21 05:44:42;;;;;;;8.98;2.95;;;15.60;99.90;;;15.29;100.00;100227.28;4136511;28;20097;-67
2021/06/21 05:46:43;;;;;;;12.05;3.25;;;15.70;99.90;;;15.21;100.00;100230.13;4136654;28;20086;-67
2021/06/21 05:48:44;;;;;;;5.55;2.05;;;15.70;99.90;;;15.29;100.00;100232.59;4136305;28;20061;-67
2021/06/21 05:50:45;;;;;;;7.68;2.15;;;15.70;99.90;;;15.39;100.00;100232.22;4136440;28;20030;-67
2021/06/21 05:52:51;;;;;;;7.53;2.40;;;15.80;99.90;;;15.44;100.00;100235.94;4136355;28;20030;-67
2021/06/21 05:54:59;;;;;;;7.20;2.67;;;15.80;99.90;;;15.48;100.00;100239.88;4136348;28;20109;-68
2021/06/21 05:57:00;;;;;;;11.20;3.13;;;15.90;99.90;;;15.53;100.00;100236.59;4136412;28;20042;-68
2021/06/21 05:59:00;;;;;;;13.68;3.03;;;15.90;99.90;;;15.49;100.00;100230.88;4136204;28;20022;-68
2021/06/21 06:01:02;;;;;;;11.45;3.35;;;15.90;99.90;;;15.57;100.00;100226.38;4136408;28;20073;-68
2021/06/21 06:03:03;;;;;;;6.88;2.40;;;16.00;99.90;;;15.64;100.00;100236.03;4135217;28;20030;-68
2021/06/21 06:05:05;;;;;;;7.93;2.53;;;16.10;99.90;;;15.74;100.00;100235.66;4136317;28;20277;-68
2021/06/21 06:07:06;;;;;;;7.32;2.50;;;16.20;99.90;;;15.86;100.00;100242.81;4135105;28;20254;-68
2021/06/21 06:09:07;;;;;;;12.02;2.70;;;16.30;99.90;;;15.97;100.00;100239.56;4136405;28;20030;-68
2021/06/21 06:11:08;;;;;;;7.25;2.20;;;16.50;99.90;;;16.12;100.00;100244.69;4135955;28;20497;-68
2021/06/21 06:13:09;;;;;;;7.03;1.83;;;16.60;99.90;;;16.18;100.00;100246.56;4136228;28;20113;-68
2021/06/21 06:15:11;;;;;;;11.05;2.60;;;16.70;99.90;;;16.23;100.00;100241.44;4136033;28;20050;-68
2021/06/21 06:17:12;;;;;;;7.82;2.47;;;16.90;99.90;;;16.37;100.00;100250.22;4136178;28;20022;-68
2021/06/21 06:19:13;;;;;;;7.28;3.58;;;17.10;99.90;;;16.44;100.00;100243.88;4136143;28;20504;-67
2021/06/21 06:21:17;;;;;;;9.48;2.47;;;17.10;99.90;;;16.51;100.00;100247.38;4136139;28;20045;-67
2021/06/21 06:23:18;;;;;;;6.60;2.20;;;17.20;99.90;;;16.46;100.00;100243.66;4135876;28;20033;-67
2021/06/21 06:25:19;;;;;;;6.15;1.90;;;17.20;99.90;;;16.54;100.00;100243.50;4167027;28;20033;-68
2021/06/21 06:27:20;;;;;;;12.52;2.20;;;17.20;99.90;;;16.60;100.00;100253.31;4134189;28;20022;-67
2021/06/21 06:29:21;;;;;;;6.00;1.80;;;17.20;99.90;;;16.66;100.00;100249.00;4135743;28;20057;-67
2021/06/21 06:31:22;;;;;;;5.90;2.17;;;17.20;99.90;;;16.69;100.00;100248.59;4135597;28;20026;-67
2021/06/21 06:33:23;;;;;;;6.57;1.80;;;17.30;99.90;;;16.75;100.00;100261.91;4134760;28;20045;-67
2021/06/21 06:35:24;;;;;;;4.85;1.58;;;17.40;99.90;;;16.84;100.00;100259.84;4135798;28;20046;-67
2021/06/21 06:37:25;;;;;;;8.43;1.88;;;17.40;99.90;;;16.88;100.00;100261.03;4135786;28;20393;-67
2021/06/21 06:39:27;;;;;;;8.45;1.85;;;17.50;99.90;;;16.95;100.00;100265.34;4135546;28;20074;-67
2021/06/21 06:41:28;;;;;;;7.72;2.25;;;17.60;99.90;;;17.08;100.00;100270.63;4134226;28;20080;-67
2021/06/21 06:43:29;;;;;;;10.77;2.00;;;17.80;99.90;;;17.27;100.00;100268.09;4135708;28;20034;-67
2021/06/21 06:45:29;;;;;;;14.25;2.50;;;18.10;99.90;;;17.50;100.00;100274.56;4135692;28;20034;-68
2021/06/21 06:47:32;;;;;;;9.95;2.42;;;18.30;99.90;;;17.61;100.00;100275.78;4135638;28;20033;-67
2021/06/21 06:49:33;;;;;;;8.38;2.28;;;18.40;99.90;;;17.64;100.00;100281.53;4135476;28;20057;-67
2021/06/21 06:51:39;;;;;;;5.47;1.83;;;18.50;99.90;;;17.68;100.00;100276.59;4135596;28;20062;-67
2021/06/21 06:53:45;;;;;;;8.20;2.38;;;18.60;99.90;;;17.81;100.00;100281.00;4134447;28;20105;-67
2021/06/21 06:58:06;;;;;;;6.25;1.35;;;18.70;99.90;;;17.71;99.70;100278.00;4135722;28;20585;-68
2021/06/21 07:00:11;;;;;;;9.05;1.80;;;18.70;99.90;;;17.67;99.55;100280.28;4135901;28;20026;-67
2021/06/21 07:02:22;;;;;;;3.38;1.25;;;18.60;99.90;;;17.76;100.00;100288.84;4135720;28;20031;-67
2021/06/21 07:04:24;;;;;;;5.03;1.17;;;18.70;99.90;;;17.83;99.89;100294.97;4135971;28;20026;-67
2021/06/21 07:06:24;;;;;;;6.22;1.90;;;18.70;99.90;;;17.84;100.00;100288.59;4135813;28;20394;-67
2021/06/21 07:08:25;;;;;;;6.57;1.60;;;18.70;99.90;;;17.51;99.45;100289.53;4150724;28;20029;-67
2021/06/21 07:10:27;;;;;;;4.45;1.50;;;18.70;99.90;;;17.55;99.40;100292.63;4135253;28;20034;-67
2021/06/21 07:12:28;;;;;;;5.38;1.13;;;18.60;99.90;;;17.57;99.89;100294.06;4135787;28;20088;-67
2021/06/21 07:14:29;;;;;;;2.78;1.42;;;18.60;99.90;;;17.60;99.92;100279.47;4135685;28;20053;-67
2021/06/21 07:16:31;;;;;;;5.05;1.48;;;18.60;99.90;;;17.60;99.90;100282.97;4135624;28;20023;-67
2021/06/21 07:18:32;;;;;;;7.32;1.73;;;18.50;99.90;;;17.60;99.10;100285.63;4135533;28;20405;-67
2021/06/21 07:20:33;;;;;;;4.53;1.48;;;18.40;99.90;;;17.55;98.89;100287.31;4135689;28;20027;-67
2021/06/21 07:22:34;;;;;;;6.53;1.45;;;18.40;99.90;;;17.54;99.09;100289.16;4135595;28;20026;-67
2021/06/21 07:24:35;;;;;;;4.85;1.60;;;18.30;99.90;;;17.50;99.77;100285.22;4135684;28;20086;-67
2021/06/21 07:26:38;;;;;;;4.35;1.33;;;18.30;99.90;;;17.53;99.90;100289.34;4135088;28;20045;-67
2021/06/21 07:28:39;;;;;;;6.43;1.67;;;18.20;99.90;;;17.50;100.00;100284.44;4135672;28;20027;-67
2021/06/21 07:30:40;;;;;;;5.13;1.10;;;18.20;99.90;;;17.56;100.00;100289.75;4135278;28;20053;-67
2021/06/21 07:32:41;;;;;;;6.93;1.85;;;18.20;99.90;;;17.57;100.00;100277.25;4135478;28;20026;-67
2021/06/21 07:34:43;;;;;;;4.78;1.40;;;18.30;99.90;;;17.73;100.00;100295.44;4135382;28;20109;-67
2021/06/21 07:36:44;;;;;;;6.80;1.45;;;18.30;99.90;;;17.81;100.00;100291.69;4135565;28;20026;-68
2021/06/21 07:38:44;;;;;;;7.13;1.67;;;18.40;99.90;;;17.83;98.98;100293.09;4135622;28;20029;-67
2021/06/21 07:40:45;;;;;;;5.55;1.55;;;18.60;99.90;;;17.87;98.59;100294.31;4136206;28;20045;-67
2021/06/21 07:42:46;;;;;;;4.03;1.25;;;18.60;99.90;;;18.01;98.48;100284.41;4138177;28;20109;-67
2021/06/21 07:44:47;;;;;;;3.75;1.85;;;18.80;99.90;;;18.26;97.58;100298.56;4138411;28;20034;-67
2021/06/21 07:46:48;;;;;;;7.97;1.38;;;19.00;99.90;;;18.43;96.81;100297.00;4138288;28;20041;-67
2021/06/21 07:48:49;;;;;;;5.03;1.10;;;19.20;99.90;;;18.60;96.18;100286.63;4138502;28;20034;-67
2021/06/21 07:50:51;;;;;;;4.63;1.25;;;19.40;99.90;;;18.70;95.72;100287.75;4137101;28;20472;-67
2021/06/21 07:52:52;;;;;;;5.30;1.58;;;19.60;99.90;;;18.89;95.41;100285.94;4138389;28;20391;-67
2021/06/21 07:54:58;;;;;;;6.50;1.42;;;19.80;99.90;;;18.92;93.76;100282.00;4138111;28;20037;-67
2021/06/21 07:56:59;;;;;;;4.20;1.02;;;20.00;99.90;;;18.97;94.90;100288.31;4137171;28;20518;-68
2021/06/21 07:59:00;;;;;;;9.05;1.33;;;20.10;99.90;;;19.16;94.45;100287.31;4138078;28;20058;-67
2021/06/21 08:01:01;;;;;;;5.20;1.05;;;20.30;99.90;;;19.23;94.18;100290.69;4138335;28;20027;-67
2021/06/21 08:03:04;;;;;;;4.75;1.45;;;20.40;99.90;;;19.21;92.28;100290.13;4138124;28;20091;-67
2021/06/21 08:05:05;;;;;;;5.35;1.58;;;20.40;99.90;;;19.21;92.88;100289.28;4138168;28;20050;-67
2021/06/21 08:07:06;;;;;;;4.40;1.55;;;20.50;99.90;;;19.31;93.13;100301.13;4138014;28;20026;-67
2021/06/21 08:09:07;;;;;;;5.68;1.27;;;20.50;99.90;;;19.20;91.31;100307.19;4138135;28;20571;-67
2021/06/21 08:11:11;;;;;;;4.15;1.10;;;20.40;99.90;;;19.15;92.29;100303.56;4136247;28;20046;-67
2021/06/21 08:13:12;;;;;;;5.43;1.45;;;20.40;99.90;;;18.90;88.08;100294.78;4138021;28;20026;-67
2021/06/21 08:15:14;;;;;;;5.45;0.95;;;20.20;99.90;;;18.88;88.05;100283.47;4136654;28;20034;-67
2021/06/21 08:17:15;;;;;;;4.93;0.82;;;20.10;99.90;;;19.03;89.41;100305.31;4138080;28;20109;-67
2021/06/21 08:19:15;;;;;;;3.28;1.25;;;20.10;99.90;;;19.16;90.04;100302.53;4138006;28;20033;-67
2021/06/21 08:21:16;;;;;;;4.57;0.90;;;20.20;99.90;;;19.19;88.96;100296.72;4137954;28;20026;-67
2021/06/21 08:23:18;;;;;;;4.80;1.00;;;20.30;99.90;;;19.43;87.16;100314.59;4152723;28;20068;-67
2021/06/21 08:25:19;;;;;;;4.32;0.90;;;20.50;99.90;;;19.55;87.88;100304.78;4125578;28;20037;-67
2021/06/21 08:27:20;;;;;;;2.72;0.80;;;20.60;99.90;;;19.74;87.19;100305.56;4137941;28;20389;-67
2021/06/21 08:29:21;;;;;;;3.80;0.80;;;20.90;99.90;;;19.88;85.50;100312.38;4136647;28;20065;-67